sensor_id;sensor_type;location;lat;lon;timestamp;temperature;humidity
80220;DHT22;69535;37.974;23.708;2023-05-16T00:00:17;24.20;37.40
80220;DHT22;69535;37.974;23.708;2023-05-16T00:02:43;24.30;37.50
80220;DHT22;69535;37.974;23.708;2023-05-16T00:05:09;24.30;37.50
80220;DHT22;69535;37.974;23.708;2023-05-16T00:07:37;24.30;37.50
80220;DHT22;69535;37.974;23.708;2023-05-16T00:10:03;24.20;37.50
80220;DHT22;69535;37.974;23.708;2023-05-16T00:12:29;24.20;37.50
80220;DHT22;69535;37.974;23.708;2023-05-16T00:14:54;24.30;37.60
80220;DHT22;69535;37.974;23.708;2023-05-16T00:17:21;24.20;37.60
80220;DHT22;69535;37.974;23.708;2023-05-16T00:19:47;24.30;37.70
80220;DHT22;69535;37.974;23.708;2023-05-16T00:22:16;24.20;37.60
80220;DHT22;69535;37.974;23.708;2023-05-16T00:24:43;24.20;37.70
80220;DHT22;69535;37.974;23.708;2023-05-16T00:27:08;24.20;37.60
80220;DHT22;69535;37.974;23.708;2023-05-16T00:29:34;24.20;37.60
80220;DHT22;69535;37.974;23.708;2023-05-16T00:32:00;24.20;37.70
80220;DHT22;69535;37.974;23.708;2023-05-16T00:34:25;24.20;37.60
80220;DHT22;69535;37.974;23.708;2023-05-16T00:36:52;24.20;37.70
80220;DHT22;69535;37.974;23.708;2023-05-16T00:39:18;24.20;37.70
80220;DHT22;69535;37.974;23.708;2023-05-16T00:41:44;24.20;37.70
80220;DHT22;69535;37.974;23.708;2023-05-16T00:44:10;24.20;37.70
80220;DHT22;69535;37.974;23.708;2023-05-16T00:46:36;24.20;37.80
80220;DHT22;69535;37.974;23.708;2023-05-16T00:49:02;24.20;37.70
80220;DHT22;69535;37.974;23.708;2023-05-16T00:51:28;24.20;37.70
80220;DHT22;69535;37.974;23.708;2023-05-16T00:53:55;24.20;37.70
80220;DHT22;69535;37.974;23.708;2023-05-16T00:56:21;24.20;37.80
80220;DHT22;69535;37.974;23.708;2023-05-16T00:58:47;24.20;37.80
80220;DHT22;69535;37.974;23.708;2023-05-16T01:01:13;24.30;37.90
80220;DHT22;69535;37.974;23.708;2023-05-16T01:03:39;24.30;37.90
80220;DHT22;69535;37.974;23.708;2023-05-16T01:06:05;24.20;37.90
80220;DHT22;69535;37.974;23.708;2023-05-16T01:08:31;24.20;37.90
80220;DHT22;69535;37.974;23.708;2023-05-16T01:16:08;24.20;38.00
80220;DHT22;69535;37.974;23.708;2023-05-16T01:24:17;24.30;38.10
80220;DHT22;69535;37.974;23.708;2023-05-16T01:26:47;24.20;38.10
80220;DHT22;69535;37.974;23.708;2023-05-16T01:29:14;24.20;38.10
80220;DHT22;69535;37.974;23.708;2023-05-16T01:31:40;24.30;38.20
80220;DHT22;69535;37.974;23.708;2023-05-16T01:34:06;24.30;38.20
80220;DHT22;69535;37.974;23.708;2023-05-16T01:39:50;24.30;38.20
80220;DHT22;69535;37.974;23.708;2023-05-16T01:42:20;24.30;38.20
80220;DHT22;69535;37.974;23.708;2023-05-16T01:47:19;24.30;38.20
80220;DHT22;69535;37.974;23.708;2023-05-16T01:52:24;24.30;38.20
80220;DHT22;69535;37.974;23.708;2023-05-16T01:54:52;24.30;38.30
80220;DHT22;69535;37.974;23.708;2023-05-16T01:57:22;24.30;38.20
80220;DHT22;69535;37.974;23.708;2023-05-16T01:59:49;24.30;38.30
80220;DHT22;69535;37.974;23.708;2023-05-16T02:02:17;24.30;38.40
80220;DHT22;69535;37.974;23.708;2023-05-16T02:04:43;24.30;38.40
80220;DHT22;69535;37.974;23.708;2023-05-16T02:07:09;24.30;38.50
80220;DHT22;69535;37.974;23.708;2023-05-16T02:09:35;24.30;38.50
80220;DHT22;69535;37.974;23.708;2023-05-16T02:12:00;24.30;38.60
80220;DHT22;69535;37.974;23.708;2023-05-16T02:14:26;24.30;38.50
80220;DHT22;69535;37.974;23.708;2023-05-16T02:16:52;24.30;38.60
80220;DHT22;69535;37.974;23.708;2023-05-16T02:19:18;24.30;38.80
80220;DHT22;69535;37.974;23.708;2023-05-16T02:21:43;24.30;38.90
80220;DHT22;69535;37.974;23.708;2023-05-16T02:24:09;24.30;39.00
80220;DHT22;69535;37.974;23.708;2023-05-16T02:26:35;24.30;39.00
80220;DHT22;69535;37.974;23.708;2023-05-16T02:29:01;24.30;39.10
80220;DHT22;69535;37.974;23.708;2023-05-16T02:31:30;24.30;39.30
80220;DHT22;69535;37.974;23.708;2023-05-16T02:33:57;24.30;39.50
80220;DHT22;69535;37.974;23.708;2023-05-16T02:36:23;24.30;39.70
80220;DHT22;69535;37.974;23.708;2023-05-16T02:38:49;24.30;39.90
80220;DHT22;69535;37.974;23.708;2023-05-16T02:41:15;24.30;40.00
80220;DHT22;69535;37.974;23.708;2023-05-16T02:43:41;24.30;40.10
80220;DHT22;69535;37.974;23.708;2023-05-16T02:46:24;24.30;40.10
80220;DHT22;69535;37.974;23.708;2023-05-16T02:48:50;24.30;40.20
80220;DHT22;69535;37.974;23.708;2023-05-16T02:51:16;24.20;40.10
80220;DHT22;69535;37.974;23.708;2023-05-16T02:53:42;24.30;40.20
80220;DHT22;69535;37.974;23.708;2023-05-16T02:56:08;24.20;40.20
80220;DHT22;69535;37.974;23.708;2023-05-16T02:58:34;24.20;40.20
80220;DHT22;69535;37.974;23.708;2023-05-16T03:01:00;24.20;40.20
80220;DHT22;69535;37.974;23.708;2023-05-16T03:03:27;24.20;40.30
80220;DHT22;69535;37.974;23.708;2023-05-16T03:05:54;24.30;40.40
80220;DHT22;69535;37.974;23.708;2023-05-16T03:08:19;24.30;40.40
80220;DHT22;69535;37.974;23.708;2023-05-16T03:10:45;24.30;40.40
80220;DHT22;69535;37.974;23.708;2023-05-16T03:13:11;24.20;40.40
80220;DHT22;69535;37.974;23.708;2023-05-16T03:15:36;24.20;40.40
80220;DHT22;69535;37.974;23.708;2023-05-16T03:18:02;24.20;40.40
80220;DHT22;69535;37.974;23.708;2023-05-16T03:20:28;24.20;40.40
80220;DHT22;69535;37.974;23.708;2023-05-16T03:22:54;24.20;40.40
80220;DHT22;69535;37.974;23.708;2023-05-16T03:25:19;24.30;40.50
80220;DHT22;69535;37.974;23.708;2023-05-16T03:27:45;24.20;40.60
80220;DHT22;69535;37.974;23.708;2023-05-16T03:30:12;24.30;40.70
80220;DHT22;69535;37.974;23.708;2023-05-16T03:32:37;24.20;40.70
80220;DHT22;69535;37.974;23.708;2023-05-16T03:35:03;24.20;40.70
80220;DHT22;69535;37.974;23.708;2023-05-16T03:37:29;24.20;40.70
80220;DHT22;69535;37.974;23.708;2023-05-16T03:39:56;24.20;40.80
80220;DHT22;69535;37.974;23.708;2023-05-16T03:42:22;24.20;40.80
80220;DHT22;69535;37.974;23.708;2023-05-16T03:44:47;24.20;40.90
80220;DHT22;69535;37.974;23.708;2023-05-16T03:47:13;24.20;41.00
80220;DHT22;69535;37.974;23.708;2023-05-16T03:49:39;24.20;41.00
80220;DHT22;69535;37.974;23.708;2023-05-16T03:52:05;24.20;41.00
80220;DHT22;69535;37.974;23.708;2023-05-16T03:54:31;24.20;41.00
80220;DHT22;69535;37.974;23.708;2023-05-16T03:56:57;24.20;40.90
80220;DHT22;69535;37.974;23.708;2023-05-16T03:59:23;24.20;40.90
80220;DHT22;69535;37.974;23.708;2023-05-16T04:01:49;24.20;40.80
80220;DHT22;69535;37.974;23.708;2023-05-16T04:04:14;24.20;40.70
80220;DHT22;69535;37.974;23.708;2023-05-16T04:06:40;24.20;40.70
80220;DHT22;69535;37.974;23.708;2023-05-16T04:09:06;24.20;40.70
80220;DHT22;69535;37.974;23.708;2023-05-16T04:11:32;24.20;40.80
80220;DHT22;69535;37.974;23.708;2023-05-16T04:13:58;24.20;40.80
80220;DHT22;69535;37.974;23.708;2023-05-16T04:16:26;24.20;40.80
80220;DHT22;69535;37.974;23.708;2023-05-16T04:18:52;24.20;40.70
80220;DHT22;69535;37.974;23.708;2023-05-16T04:21:17;24.20;40.70
80220;DHT22;69535;37.974;23.708;2023-05-16T04:23:43;24.30;40.70
80220;DHT22;69535;37.974;23.708;2023-05-16T04:26:09;24.30;40.90
80220;DHT22;69535;37.974;23.708;2023-05-16T04:28:35;24.30;41.10
80220;DHT22;69535;37.974;23.708;2023-05-16T04:31:01;24.30;41.10
80220;DHT22;69535;37.974;23.708;2023-05-16T04:33:26;24.40;41.10
80220;DHT22;69535;37.974;23.708;2023-05-16T04:35:52;24.30;40.90
80220;DHT22;69535;37.974;23.708;2023-05-16T04:38:19;24.30;40.90
80220;DHT22;69535;37.974;23.708;2023-05-16T04:40:45;24.40;40.90
80220;DHT22;69535;37.974;23.708;2023-05-16T04:43:11;24.30;40.80
80220;DHT22;69535;37.974;23.708;2023-05-16T04:45:36;24.40;40.90
80220;DHT22;69535;37.974;23.708;2023-05-16T04:48:02;24.30;40.70
80220;DHT22;69535;37.974;23.708;2023-05-16T04:50:28;24.40;40.70
80220;DHT22;69535;37.974;23.708;2023-05-16T04:52:54;24.40;40.60
80220;DHT22;69535;37.974;23.708;2023-05-16T04:55:19;24.50;40.50
80220;DHT22;69535;37.974;23.708;2023-05-16T04:57:45;24.50;40.40
80220;DHT22;69535;37.974;23.708;2023-05-16T05:00:11;24.50;40.30
80220;DHT22;69535;37.974;23.708;2023-05-16T05:02:37;24.50;40.30
80220;DHT22;69535;37.974;23.708;2023-05-16T05:05:04;24.50;40.20
80220;DHT22;69535;37.974;23.708;2023-05-16T05:07:31;24.50;40.20
80220;DHT22;69535;37.974;23.708;2023-05-16T05:09:57;24.50;40.20
80220;DHT22;69535;37.974;23.708;2023-05-16T05:12:23;24.50;40.10
80220;DHT22;69535;37.974;23.708;2023-05-16T05:14:49;24.50;40.10
80220;DHT22;69535;37.974;23.708;2023-05-16T05:17:16;24.50;40.10
80220;DHT22;69535;37.974;23.708;2023-05-16T05:19:42;24.50;40.00
80220;DHT22;69535;37.974;23.708;2023-05-16T05:22:08;24.50;40.00
80220;DHT22;69535;37.974;23.708;2023-05-16T05:24:33;24.50;40.00
80220;DHT22;69535;37.974;23.708;2023-05-16T05:26:59;24.50;40.10
80220;DHT22;69535;37.974;23.708;2023-05-16T05:29:25;24.50;40.20
80220;DHT22;69535;37.974;23.708;2023-05-16T05:31:50;24.50;40.20
80220;DHT22;69535;37.974;23.708;2023-05-16T05:34:16;24.50;40.20
80220;DHT22;69535;37.974;23.708;2023-05-16T05:36:42;24.50;40.10
80220;DHT22;69535;37.974;23.708;2023-05-16T05:39:08;24.50;40.10
80220;DHT22;69535;37.974;23.708;2023-05-16T05:41:34;24.50;40.00
80220;DHT22;69535;37.974;23.708;2023-05-16T05:44:00;24.50;39.90
80220;DHT22;69535;37.974;23.708;2023-05-16T05:46:26;24.60;39.90
80220;DHT22;69535;37.974;23.708;2023-05-16T05:48:51;24.60;39.80
80220;DHT22;69535;37.974;23.708;2023-05-16T05:51:17;24.60;39.60
80220;DHT22;69535;37.974;23.708;2023-05-16T05:53:43;24.60;39.50
80220;DHT22;69535;37.974;23.708;2023-05-16T05:56:09;24.60;39.30
80220;DHT22;69535;37.974;23.708;2023-05-16T05:58:35;24.70;39.30
80220;DHT22;69535;37.974;23.708;2023-05-16T06:01:01;24.70;39.20
80220;DHT22;69535;37.974;23.708;2023-05-16T06:03:27;24.70;39.10
80220;DHT22;69535;37.974;23.708;2023-05-16T06:05:52;24.70;39.00
80220;DHT22;69535;37.974;23.708;2023-05-16T06:08:18;24.70;38.90
80220;DHT22;69535;37.974;23.708;2023-05-16T06:10:44;24.70;38.80
80220;DHT22;69535;37.974;23.708;2023-05-16T06:13:09;24.70;38.80
80220;DHT22;69535;37.974;23.708;2023-05-16T06:15:35;24.60;38.60
80220;DHT22;69535;37.974;23.708;2023-05-16T06:18:01;24.70;38.60
80220;DHT22;69535;37.974;23.708;2023-05-16T06:20:27;24.70;38.50
80220;DHT22;69535;37.974;23.708;2023-05-16T06:22:53;24.70;38.50
80220;DHT22;69535;37.974;23.708;2023-05-16T06:25:18;24.70;38.50
80220;DHT22;69535;37.974;23.708;2023-05-16T06:27:44;24.70;38.40
80220;DHT22;69535;37.974;23.708;2023-05-16T06:30:10;24.70;38.30
80220;DHT22;69535;37.974;23.708;2023-05-16T06:32:36;24.70;38.30
80220;DHT22;69535;37.974;23.708;2023-05-16T06:35:02;24.70;38.40
80220;DHT22;69535;37.974;23.708;2023-05-16T06:37:27;24.70;38.40
80220;DHT22;69535;37.974;23.708;2023-05-16T06:39:53;24.70;38.30
80220;DHT22;69535;37.974;23.708;2023-05-16T06:42:19;24.60;38.30
80220;DHT22;69535;37.974;23.708;2023-05-16T06:44:45;24.70;38.30
80220;DHT22;69535;37.974;23.708;2023-05-16T06:47:11;24.70;38.30
80220;DHT22;69535;37.974;23.708;2023-05-16T06:49:37;24.70;38.20
80220;DHT22;69535;37.974;23.708;2023-05-16T06:52:03;24.70;38.20
80220;DHT22;69535;37.974;23.708;2023-05-16T06:54:28;24.70;38.30
80220;DHT22;69535;37.974;23.708;2023-05-16T06:56:54;24.70;38.30
80220;DHT22;69535;37.974;23.708;2023-05-16T06:59:20;24.70;38.30
80220;DHT22;69535;37.974;23.708;2023-05-16T07:01:45;24.70;38.50
80220;DHT22;69535;37.974;23.708;2023-05-16T07:04:11;24.70;38.50
80220;DHT22;69535;37.974;23.708;2023-05-16T07:06:37;24.70;38.60
80220;DHT22;69535;37.974;23.708;2023-05-16T07:09:03;24.70;38.60
80220;DHT22;69535;37.974;23.708;2023-05-16T07:11:29;24.70;38.50
80220;DHT22;69535;37.974;23.708;2023-05-16T07:13:54;24.70;38.50
80220;DHT22;69535;37.974;23.708;2023-05-16T07:16:20;24.80;38.60
80220;DHT22;69535;37.974;23.708;2023-05-16T07:18:46;24.70;38.50
80220;DHT22;69535;37.974;23.708;2023-05-16T07:21:12;24.70;39.30
80220;DHT22;69535;37.974;23.708;2023-05-16T07:23:37;24.80;38.40
80220;DHT22;69535;37.974;23.708;2023-05-16T07:26:03;24.80;38.40
80220;DHT22;69535;37.974;23.708;2023-05-16T07:28:29;24.80;38.40
80220;DHT22;69535;37.974;23.708;2023-05-16T07:30:54;24.80;38.30
80220;DHT22;69535;37.974;23.708;2023-05-16T07:33:23;24.80;38.40
80220;DHT22;69535;37.974;23.708;2023-05-16T07:35:49;24.90;38.40
80220;DHT22;69535;37.974;23.708;2023-05-16T07:38:15;24.90;38.30
80220;DHT22;69535;37.974;23.708;2023-05-16T07:40:41;25.00;38.10
80220;DHT22;69535;37.974;23.708;2023-05-16T07:43:07;25.00;38.00
80220;DHT22;69535;37.974;23.708;2023-05-16T07:45:32;25.00;38.00
80220;DHT22;69535;37.974;23.708;2023-05-16T07:47:58;25.00;38.00
80220;DHT22;69535;37.974;23.708;2023-05-16T07:50:24;25.00;38.00
80220;DHT22;69535;37.974;23.708;2023-05-16T07:52:51;25.00;38.00
80220;DHT22;69535;37.974;23.708;2023-05-16T07:55:17;25.00;38.00
80220;DHT22;69535;37.974;23.708;2023-05-16T07:57:43;25.00;38.00
80220;DHT22;69535;37.974;23.708;2023-05-16T08:00:09;25.10;38.00
80220;DHT22;69535;37.974;23.708;2023-05-16T08:02:35;25.10;38.00
80220;DHT22;69535;37.974;23.708;2023-05-16T08:05:01;25.10;38.00
80220;DHT22;69535;37.974;23.708;2023-05-16T08:07:27;25.10;38.00
80220;DHT22;69535;37.974;23.708;2023-05-16T08:09:52;25.10;38.10
80220;DHT22;69535;37.974;23.708;2023-05-16T08:12:18;25.10;38.00
80220;DHT22;69535;37.974;23.708;2023-05-16T08:14:44;25.10;38.00
80220;DHT22;69535;37.974;23.708;2023-05-16T08:17:10;25.10;38.00
80220;DHT22;69535;37.974;23.708;2023-05-16T08:19:35;25.10;38.00
80220;DHT22;69535;37.974;23.708;2023-05-16T08:22:01;25.10;38.00
80220;DHT22;69535;37.974;23.708;2023-05-16T08:24:27;25.10;38.00
80220;DHT22;69535;37.974;23.708;2023-05-16T08:26:52;25.20;37.90
80220;DHT22;69535;37.974;23.708;2023-05-16T08:29:18;25.20;37.80
80220;DHT22;69535;37.974;23.708;2023-05-16T08:31:44;25.20;37.70
80220;DHT22;69535;37.974;23.708;2023-05-16T08:34:09;25.30;37.90
80220;DHT22;69535;37.974;23.708;2023-05-16T08:36:36;25.30;37.90
80220;DHT22;69535;37.974;23.708;2023-05-16T08:39:02;25.30;37.90
80220;DHT22;69535;37.974;23.708;2023-05-16T08:41:28;25.30;38.80
80220;DHT22;69535;37.974;23.708;2023-05-16T08:43:54;25.30;37.90
80220;DHT22;69535;37.974;23.708;2023-05-16T08:46:22;25.30;37.80
80220;DHT22;69535;37.974;23.708;2023-05-16T08:48:51;25.30;37.80
80220;DHT22;69535;37.974;23.708;2023-05-16T08:51:20;25.30;37.90
80220;DHT22;69535;37.974;23.708;2023-05-16T08:53:58;25.30;37.90
80220;DHT22;69535;37.974;23.708;2023-05-16T08:56:25;25.30;37.90
80220;DHT22;69535;37.974;23.708;2023-05-16T08:58:51;25.30;38.00
80220;DHT22;69535;37.974;23.708;2023-05-16T09:01:21;25.30;38.00
80220;DHT22;69535;37.974;23.708;2023-05-16T09:03:51;25.30;37.90
80220;DHT22;69535;37.974;23.708;2023-05-16T09:06:18;25.30;37.80
80220;DHT22;69535;37.974;23.708;2023-05-16T09:08:43;25.40;37.80
80220;DHT22;69535;37.974;23.708;2023-05-16T09:11:10;25.30;37.70
80220;DHT22;69535;37.974;23.708;2023-05-16T09:13:37;25.40;37.80
80220;DHT22;69535;37.974;23.708;2023-05-16T09:16:14;25.40;37.90
80220;DHT22;69535;37.974;23.708;2023-05-16T09:18:42;25.40;37.90
80220;DHT22;69535;37.974;23.708;2023-05-16T09:21:10;25.40;37.90
80220;DHT22;69535;37.974;23.708;2023-05-16T09:23:36;25.40;37.90
80220;DHT22;69535;37.974;23.708;2023-05-16T09:26:03;25.40;37.90
80220;DHT22;69535;37.974;23.708;2023-05-16T09:28:30;25.40;37.90
80220;DHT22;69535;37.974;23.708;2023-05-16T09:30:56;25.50;37.90
80220;DHT22;69535;37.974;23.708;2023-05-16T09:33:26;25.40;38.00
80220;DHT22;69535;37.974;23.708;2023-05-16T09:35:57;25.40;38.00
80220;DHT22;69535;37.974;23.708;2023-05-16T09:38:24;25.40;38.10
80220;DHT22;69535;37.974;23.708;2023-05-16T09:40:51;25.40;38.20
80220;DHT22;69535;37.974;23.708;2023-05-16T09:43:17;25.50;38.20
80220;DHT22;69535;37.974;23.708;2023-05-16T09:45:47;25.40;38.20
80220;DHT22;69535;37.974;23.708;2023-05-16T09:48:13;25.40;38.10
80220;DHT22;69535;37.974;23.708;2023-05-16T09:50:40;25.40;38.10
80220;DHT22;69535;37.974;23.708;2023-05-16T09:53:12;25.40;38.10
80220;DHT22;69535;37.974;23.708;2023-05-16T09:55:38;25.40;38.10
80220;DHT22;69535;37.974;23.708;2023-05-16T09:58:03;25.40;38.20
80220;DHT22;69535;37.974;23.708;2023-05-16T10:00:31;25.40;38.30
80220;DHT22;69535;37.974;23.708;2023-05-16T10:02:58;25.40;38.40
80220;DHT22;69535;37.974;23.708;2023-05-16T10:05:27;25.40;38.50
80220;DHT22;69535;37.974;23.708;2023-05-16T10:07:57;25.40;38.60
80220;DHT22;69535;37.974;23.708;2023-05-16T10:10:23;25.40;38.80
80220;DHT22;69535;37.974;23.708;2023-05-16T10:12:53;25.40;38.80
80220;DHT22;69535;37.974;23.708;2023-05-16T10:15:23;25.40;38.90
80220;DHT22;69535;37.974;23.708;2023-05-16T10:17:50;25.40;39.10
80220;DHT22;69535;37.974;23.708;2023-05-16T10:20:19;25.40;39.20
80220;DHT22;69535;37.974;23.708;2023-05-16T10:22:46;25.40;39.40
80220;DHT22;69535;37.974;23.708;2023-05-16T10:27:53;25.50;39.80
80220;DHT22;69535;37.974;23.708;2023-05-16T10:30:20;25.50;39.80
80220;DHT22;69535;37.974;23.708;2023-05-16T10:32:46;25.40;39.90
80220;DHT22;69535;37.974;23.708;2023-05-16T10:35:13;25.40;40.00
80220;DHT22;69535;37.974;23.708;2023-05-16T10:37:40;25.40;40.10
80220;DHT22;69535;37.974;23.708;2023-05-16T10:40:07;25.50;40.30
80220;DHT22;69535;37.974;23.708;2023-05-16T10:42:34;25.50;40.40
80220;DHT22;69535;37.974;23.708;2023-05-16T10:45:16;25.50;40.50
80220;DHT22;69535;37.974;23.708;2023-05-16T10:53:33;25.50;40.90
80220;DHT22;69535;37.974;23.708;2023-05-16T11:09:06;25.40;41.80
80220;DHT22;69535;37.974;23.708;2023-05-16T11:11:54;25.50;41.90
80220;DHT22;69535;37.974;23.708;2023-05-16T11:14:24;25.50;41.90
80220;DHT22;69535;37.974;23.708;2023-05-16T11:17:15;25.60;41.90
80220;DHT22;69535;37.974;23.708;2023-05-16T11:20:05;25.60;41.90
80220;DHT22;69535;37.974;23.708;2023-05-16T11:22:32;25.50;42.10
80220;DHT22;69535;37.974;23.708;2023-05-16T11:25:09;25.50;42.20
80220;DHT22;69535;37.974;23.708;2023-05-16T11:27:45;25.60;42.30
80220;DHT22;69535;37.974;23.708;2023-05-16T11:32:39;25.60;42.20
80220;DHT22;69535;37.974;23.708;2023-05-16T11:35:13;25.60;42.00
80220;DHT22;69535;37.974;23.708;2023-05-16T11:37:40;25.60;42.10
80220;DHT22;69535;37.974;23.708;2023-05-16T11:40:07;25.60;42.30
80220;DHT22;69535;37.974;23.708;2023-05-16T11:42:38;25.70;42.10
80220;DHT22;69535;37.974;23.708;2023-05-16T11:45:18;25.60;42.20
80220;DHT22;69535;37.974;23.708;2023-05-16T11:47:46;25.60;42.30
80220;DHT22;69535;37.974;23.708;2023-05-16T11:50:16;25.60;42.30
80220;DHT22;69535;37.974;23.708;2023-05-16T11:52:44;25.60;42.20
80220;DHT22;69535;37.974;23.708;2023-05-16T11:55:10;25.60;42.00
80220;DHT22;69535;37.974;23.708;2023-05-16T11:57:40;25.60;42.00
80220;DHT22;69535;37.974;23.708;2023-05-16T12:00:19;25.60;41.90
80220;DHT22;69535;37.974;23.708;2023-05-16T12:02:48;25.60;41.90
80220;DHT22;69535;37.974;23.708;2023-05-16T12:05:18;25.60;41.90
80220;DHT22;69535;37.974;23.708;2023-05-16T12:07:52;25.60;41.90
80220;DHT22;69535;37.974;23.708;2023-05-16T12:10:21;25.60;41.90
80220;DHT22;69535;37.974;23.708;2023-05-16T12:12:49;25.60;41.90
80220;DHT22;69535;37.974;23.708;2023-05-16T12:15:17;25.60;41.90
80220;DHT22;69535;37.974;23.708;2023-05-16T12:17:43;25.60;41.90
80220;DHT22;69535;37.974;23.708;2023-05-16T12:20:10;25.60;41.90
80220;DHT22;69535;37.974;23.708;2023-05-16T12:22:45;25.60;41.90
80220;DHT22;69535;37.974;23.708;2023-05-16T12:25:24;25.60;41.90
80220;DHT22;69535;37.974;23.708;2023-05-16T12:27:53;25.60;42.10
80220;DHT22;69535;37.974;23.708;2023-05-16T12:30:21;25.70;41.40
80220;DHT22;69535;37.974;23.708;2023-05-16T12:32:52;25.70;41.30
80220;DHT22;69535;37.974;23.708;2023-05-16T12:35:19;25.70;41.30
80220;DHT22;69535;37.974;23.708;2023-05-16T12:37:45;25.70;41.40
80220;DHT22;69535;37.974;23.708;2023-05-16T12:40:11;25.70;41.50
80220;DHT22;69535;37.974;23.708;2023-05-16T12:42:37;25.70;41.50
80220;DHT22;69535;37.974;23.708;2023-05-16T12:45:03;25.70;41.50
80220;DHT22;69535;37.974;23.708;2023-05-16T12:47:36;25.70;41.60
80220;DHT22;69535;37.974;23.708;2023-05-16T12:50:10;25.70;41.50
80220;DHT22;69535;37.974;23.708;2023-05-16T12:52:50;25.60;41.40
80220;DHT22;69535;37.974;23.708;2023-05-16T12:55:20;25.70;41.60
80220;DHT22;69535;37.974;23.708;2023-05-16T12:57:47;25.70;41.50
80220;DHT22;69535;37.974;23.708;2023-05-16T13:00:16;25.70;41.60
80220;DHT22;69535;37.974;23.708;2023-05-16T13:02:43;25.70;41.50
80220;DHT22;69535;37.974;23.708;2023-05-16T13:05:09;25.70;41.50
80220;DHT22;69535;37.974;23.708;2023-05-16T13:07:36;25.70;41.50
80220;DHT22;69535;37.974;23.708;2023-05-16T13:10:02;25.70;41.50
80220;DHT22;69535;37.974;23.708;2023-05-16T13:12:28;25.70;41.50
80220;DHT22;69535;37.974;23.708;2023-05-16T13:14:55;25.70;41.60
80220;DHT22;69535;37.974;23.708;2023-05-16T13:17:21;25.70;41.50
80220;DHT22;69535;37.974;23.708;2023-05-16T13:19:48;25.70;41.60
80220;DHT22;69535;37.974;23.708;2023-05-16T13:22:14;25.70;41.60
80220;DHT22;69535;37.974;23.708;2023-05-16T13:24:40;25.70;41.60
80220;DHT22;69535;37.974;23.708;2023-05-16T13:27:06;25.70;41.50
80220;DHT22;69535;37.974;23.708;2023-05-16T13:29:31;25.70;41.60
80220;DHT22;69535;37.974;23.708;2023-05-16T13:31:57;25.70;41.70
80220;DHT22;69535;37.974;23.708;2023-05-16T13:34:23;25.70;41.90
80220;DHT22;69535;37.974;23.708;2023-05-16T13:36:49;25.70;42.00
80220;DHT22;69535;37.974;23.708;2023-05-16T13:39:14;25.70;42.10
80220;DHT22;69535;37.974;23.708;2023-05-16T13:41:40;25.60;41.90
80220;DHT22;69535;37.974;23.708;2023-05-16T13:44:07;25.60;41.90
80220;DHT22;69535;37.974;23.708;2023-05-16T13:46:33;25.60;41.90
80220;DHT22;69535;37.974;23.708;2023-05-16T13:48:58;25.60;41.90
80220;DHT22;69535;37.974;23.708;2023-05-16T13:51:24;25.60;42.00
80220;DHT22;69535;37.974;23.708;2023-05-16T13:53:50;25.60;42.30
80220;DHT22;69535;37.974;23.708;2023-05-16T13:56:16;25.60;42.40
80220;DHT22;69535;37.974;23.708;2023-05-16T13:58:42;25.60;42.50
80220;DHT22;69535;37.974;23.708;2023-05-16T14:01:08;25.60;42.40
80220;DHT22;69535;37.974;23.708;2023-05-16T14:03:34;25.60;42.40
80220;DHT22;69535;37.974;23.708;2023-05-16T14:06:02;25.60;42.60
80220;DHT22;69535;37.974;23.708;2023-05-16T14:08:29;25.60;42.60
80220;DHT22;69535;37.974;23.708;2023-05-16T14:10:54;25.60;42.70
80220;DHT22;69535;37.974;23.708;2023-05-16T14:13:20;25.60;42.80
80220;DHT22;69535;37.974;23.708;2023-05-16T14:15:46;25.50;42.80
80220;DHT22;69535;37.974;23.708;2023-05-16T14:18:11;25.50;42.90
80220;DHT22;69535;37.974;23.708;2023-05-16T14:20:38;25.50;42.90
80220;DHT22;69535;37.974;23.708;2023-05-16T14:23:04;25.50;43.10
80220;DHT22;69535;37.974;23.708;2023-05-16T14:25:30;25.50;43.10
80220;DHT22;69535;37.974;23.708;2023-05-16T14:27:56;25.50;43.20
80220;DHT22;69535;37.974;23.708;2023-05-16T14:30:22;25.50;43.30
80220;DHT22;69535;37.974;23.708;2023-05-16T14:32:48;25.50;43.40
80220;DHT22;69535;37.974;23.708;2023-05-16T14:35:13;25.50;43.50
80220;DHT22;69535;37.974;23.708;2023-05-16T14:37:39;25.50;43.50
80220;DHT22;69535;37.974;23.708;2023-05-16T14:40:05;25.50;43.60
80220;DHT22;69535;37.974;23.708;2023-05-16T14:42:33;25.40;43.80
80220;DHT22;69535;37.974;23.708;2023-05-16T14:44:59;25.40;44.10
80220;DHT22;69535;37.974;23.708;2023-05-16T14:47:24;25.40;44.20
80220;DHT22;69535;37.974;23.708;2023-05-16T14:49:50;25.30;44.20
80220;DHT22;69535;37.974;23.708;2023-05-16T14:52:18;25.30;44.50
80220;DHT22;69535;37.974;23.708;2023-05-16T14:54:44;25.30;44.70
80220;DHT22;69535;37.974;23.708;2023-05-16T14:57:10;25.30;44.80
80220;DHT22;69535;37.974;23.708;2023-05-16T14:59:36;25.30;45.10
80220;DHT22;69535;37.974;23.708;2023-05-16T15:02:01;25.30;45.30
80220;DHT22;69535;37.974;23.708;2023-05-16T15:04:27;25.30;45.50
80220;DHT22;69535;37.974;23.708;2023-05-16T15:06:53;25.20;46.50
80220;DHT22;69535;37.974;23.708;2023-05-16T15:09:19;25.20;45.60
80220;DHT22;69535;37.974;23.708;2023-05-16T15:11:45;25.20;45.60
80220;DHT22;69535;37.974;23.708;2023-05-16T15:14:11;25.20;45.50
80220;DHT22;69535;37.974;23.708;2023-05-16T15:16:36;25.20;44.80
80220;DHT22;69535;37.974;23.708;2023-05-16T15:19:02;25.20;45.10
80220;DHT22;69535;37.974;23.708;2023-05-16T15:21:28;25.20;43.90
80220;DHT22;69535;37.974;23.708;2023-05-16T15:23:55;25.20;43.70
80220;DHT22;69535;37.974;23.708;2023-05-16T15:26:21;25.10;43.50
80220;DHT22;69535;37.974;23.708;2023-05-16T15:28:47;25.10;43.40
80220;DHT22;69535;37.974;23.708;2023-05-16T15:31:12;25.10;43.40
80220;DHT22;69535;37.974;23.708;2023-05-16T15:33:38;25.10;43.40
80220;DHT22;69535;37.974;23.708;2023-05-16T15:36:04;25.10;43.40
80220;DHT22;69535;37.974;23.708;2023-05-16T15:38:30;25.10;43.50
80220;DHT22;69535;37.974;23.708;2023-05-16T15:40:56;25.10;43.50
80220;DHT22;69535;37.974;23.708;2023-05-16T15:43:22;25.10;43.60
80220;DHT22;69535;37.974;23.708;2023-05-16T15:45:48;25.10;43.70
80220;DHT22;69535;37.974;23.708;2023-05-16T15:48:14;25.10;43.60
80220;DHT22;69535;37.974;23.708;2023-05-16T15:50:40;25.10;43.60
80220;DHT22;69535;37.974;23.708;2023-05-16T15:53:07;25.10;43.80
80220;DHT22;69535;37.974;23.708;2023-05-16T15:55:33;25.10;43.80